createdAt,value
2023-03-12T00:01:22.472Z,13.49
2023-03-12T00:03:50.555Z,13.47
2023-03-12T00:06:19.342Z,13.32
2023-03-12T00:08:47.958Z,13.13
2023-03-12T00:11:20.987Z,13.06
2023-03-12T00:13:53.899Z,13.11
2023-03-12T00:16:22.642Z,13.28
2023-03-12T00:18:51.849Z,12.96
2023-03-12T00:21:21.254Z,13.13
2023-03-12T00:23:49.401Z,12.94
2023-03-12T00:26:18.541Z,12.86
2023-03-12T00:28:47.804Z,12.75
2023-03-12T00:31:20.161Z,12.91
2023-03-12T00:33:51.612Z,12.79
2023-03-12T00:36:21.525Z,12.98
2023-03-12T00:38:49.390Z,12.88
2023-03-12T00:41:17.059Z,12.44
2023-03-12T00:43:44.575Z,12.49
2023-03-12T00:46:12.116Z,12.32
2023-03-12T00:48:39.738Z,12.46
2023-03-12T00:51:07.891Z,12.45
2023-03-12T00:53:36.260Z,12.36
2023-03-12T00:56:04.756Z,12.20
2023-03-12T00:58:32.395Z,12.21
2023-03-12T01:01:00.807Z,12.29
2023-03-12T01:03:28.281Z,12.34
2023-03-12T01:05:55.775Z,12.29
2023-03-12T01:08:23.799Z,12.24
2023-03-12T01:10:51.719Z,12.12
2023-03-12T01:13:19.252Z,12.17
2023-03-12T01:15:46.690Z,12.13
2023-03-12T01:18:14.548Z,12.02
2023-03-12T01:20:42.266Z,11.99
2023-03-12T01:23:10.180Z,12.17
2023-03-12T01:25:38.181Z,12.24
2023-03-12T01:28:05.893Z,12.11
2023-03-12T01:30:33.434Z,12.17
2023-03-12T01:33:00.913Z,11.99
2023-03-12T01:35:28.587Z,12.07
2023-03-12T01:37:56.525Z,12.03
2023-03-12T01:40:29.074Z,11.81
2023-03-12T01:42:58.790Z,12.07
2023-03-12T01:45:57.359Z,12.12
2023-03-12T01:48:27.401Z,12.07
2023-03-12T01:50:55.392Z,12.13
2023-03-12T01:53:23.302Z,12.10
2023-03-12T01:55:51.452Z,11.93
2023-03-12T01:58:19.678Z,11.87
2023-03-12T02:00:47.251Z,11.70
2023-03-12T02:03:15.822Z,11.51
2023-03-12T02:05:53.324Z,11.75
2023-03-12T02:08:22.916Z,11.55
2023-03-12T02:10:51.022Z,11.58
2023-03-12T02:13:18.987Z,11.72
2023-03-12T02:15:48.785Z,11.69
2023-03-12T02:18:19.211Z,11.76
2023-03-12T02:21:04.060Z,11.45
2023-03-12T02:24:04.507Z,11.51
2023-03-12T02:26:35.777Z,11.42
2023-03-12T02:29:04.354Z,11.51
2023-03-12T02:31:38.694Z,11.66
2023-03-12T02:34:08.649Z,11.38
2023-03-12T02:36:37.209Z,11.67
2023-03-12T02:39:06.059Z,11.45
2023-03-12T02:41:38.150Z,11.45
2023-03-12T02:44:16.936Z,11.41
2023-03-12T02:46:48.357Z,11.64
2023-03-12T02:49:17.684Z,11.89
2023-03-12T02:51:46.202Z,11.88
2023-03-12T02:54:15.801Z,11.91
2023-03-12T02:56:43.610Z,12.00
2023-03-12T02:59:13.388Z,11.96
2023-03-12T03:01:43.205Z,11.87
2023-03-12T03:04:38.037Z,12.00
2023-03-12T03:07:05.769Z,11.93
2023-03-12T03:12:27.635Z,11.90
2023-03-12T03:14:55.153Z,11.85
2023-03-12T03:17:25.937Z,12.17
2023-03-12T03:19:53.752Z,12.13
2023-03-12T03:22:22.741Z,11.84
2023-03-12T03:24:50.294Z,11.92
2023-03-12T03:27:17.719Z,12.13
2023-03-12T03:29:46.550Z,12.17
2023-03-12T03:32:14.322Z,11.89
2023-03-12T03:34:41.843Z,11.78
2023-03-12T03:37:09.421Z,11.90
2023-03-12T03:39:37.403Z,11.91
2023-03-12T03:42:05.287Z,11.90
2023-03-12T03:44:34.228Z,11.86
2023-03-12T03:47:02.560Z,11.76
2023-03-12T03:49:30.057Z,11.74
2023-03-12T03:51:57.568Z,11.79
2023-03-12T03:54:31.797Z,11.97
2023-03-12T03:57:00.777Z,11.83
2023-03-12T03:59:28.708Z,11.85
2023-03-12T04:01:56.209Z,12.24
2023-03-12T04:04:24.289Z,12.05
2023-03-12T04:06:52.063Z,12.12
2023-03-12T04:09:19.777Z,12.04
2023-03-12T04:11:47.419Z,11.73
2023-03-12T04:14:15.658Z,11.83
2023-03-12T04:16:45.337Z,12.08
2023-03-12T04:19:12.953Z,12.26
2023-03-12T04:21:40.732Z,12.34
2023-03-12T04:24:14.720Z,12.34
2023-03-12T04:26:42.750Z,12.06
2023-03-12T04:29:10.614Z,11.90
2023-03-12T04:31:38.347Z,11.83
2023-03-12T04:34:05.924Z,11.99
2023-03-12T04:36:33.501Z,12.04
2023-03-12T04:39:01.706Z,11.73
2023-03-12T04:41:36.793Z,11.94
2023-03-12T04:44:12.201Z,11.81
2023-03-12T04:46:41.692Z,11.60
2023-03-12T04:49:11.211Z,11.56
2023-03-12T04:51:39.969Z,11.18
2023-03-12T04:54:08.093Z,11.53
2023-03-12T04:56:36.928Z,11.39
2023-03-12T04:59:05.226Z,11.21
2023-03-12T05:01:35.432Z,11.34
2023-03-12T05:04:07.939Z,11.40
2023-03-12T05:06:35.877Z,11.15
2023-03-12T05:09:04.041Z,11.23
2023-03-12T05:11:31.633Z,11.12
2023-03-12T05:13:59.133Z,11.22
2023-03-12T05:16:26.903Z,11.10
2023-03-12T05:18:54.561Z,11.22
2023-03-12T05:21:24.226Z,11.16
2023-03-12T05:23:54.909Z,11.08
2023-03-12T05:26:26.385Z,11.25
2023-03-12T05:29:01.067Z,11.37
2023-03-12T05:31:33.244Z,11.07
2023-03-12T05:34:03.106Z,11.14
2023-03-12T05:36:31.925Z,11.18
2023-03-12T05:39:01.438Z,11.40
2023-03-12T05:41:32.342Z,11.33
2023-03-12T05:44:06.311Z,11.41
2023-03-12T05:46:34.000Z,11.18
2023-03-12T05:49:01.631Z,11.48
2023-03-12T05:51:29.397Z,11.33
2023-03-12T05:53:57.388Z,11.49
2023-03-12T05:56:25.484Z,11.56
2023-03-12T05:58:57.728Z,11.38
2023-03-12T06:01:28.757Z,11.53
2023-03-12T06:03:58.626Z,11.56
2023-03-12T06:06:26.891Z,11.23
2023-03-12T06:08:55.027Z,11.44
2023-03-12T06:11:23.700Z,11.52
2023-03-12T06:13:51.378Z,11.49
2023-03-12T06:16:22.078Z,11.25
2023-03-12T06:18:54.179Z,11.52
2023-03-12T06:21:24.950Z,11.15
2023-03-12T06:23:54.515Z,11.31
2023-03-12T06:26:28.120Z,11.33
2023-03-12T06:28:55.833Z,11.42
2023-03-12T06:31:23.476Z,11.10
2023-03-12T06:33:51.842Z,11.21
2023-03-12T06:36:19.924Z,11.19
2023-03-12T06:38:47.421Z,11.57
2023-03-12T06:41:17.614Z,11.47
2023-03-12T06:43:46.078Z,11.40
2023-03-12T06:46:22.061Z,11.59
2023-03-12T06:48:49.814Z,11.26
2023-03-12T06:51:17.863Z,11.24
2023-03-12T06:53:46.656Z,11.50
2023-03-12T06:56:14.297Z,11.82
2023-03-12T06:58:41.892Z,11.40
2023-03-12T07:01:10.076Z,11.35
2023-03-12T07:03:37.646Z,11.79
2023-03-12T07:06:05.716Z,11.57
2023-03-12T07:08:33.196Z,11.35
2023-03-12T07:11:01.905Z,11.57
2023-03-12T07:13:31.722Z,12.03
2023-03-12T07:16:02.493Z,12.14
2023-03-12T07:18:33.266Z,11.85
2023-03-12T07:21:00.943Z,12.40
2023-03-12T07:23:28.725Z,12.08
2023-03-12T07:25:56.254Z,12.08
2023-03-12T07:28:23.937Z,12.39
2023-03-12T07:30:51.520Z,12.82
2023-03-12T07:33:21.958Z,13.41
2023-03-12T07:36:22.416Z,14.29
2023-03-12T07:38:51.597Z,15.78
2023-03-12T07:41:19.279Z,15.07
2023-03-12T07:43:47.306Z,14.39
2023-03-12T07:46:15.732Z,14.64
2023-03-12T07:48:46.450Z,15.04
2023-03-12T08:24:54.807Z,17.48
2023-03-12T08:27:22.464Z,17.83
2023-03-12T08:29:51.260Z,18.43
2023-03-12T08:32:23.631Z,19.86
2023-03-12T08:35:07.063Z,20.95
2023-03-12T08:37:41.973Z,18.79
2023-03-12T08:40:13.617Z,18.98
2023-03-12T08:42:43.028Z,18.57
2023-03-12T08:45:12.341Z,19.13
2023-03-12T08:47:41.834Z,19.35
2023-03-12T08:50:16.659Z,19.96
2023-03-12T08:52:48.735Z,19.23
2023-03-12T08:55:46.388Z,17.32
2023-03-12T08:58:16.242Z,16.98
2023-03-12T09:00:46.681Z,19.55
2023-03-12T09:03:15.341Z,19.65
2023-03-12T09:05:43.942Z,20.47
2023-03-12T09:09:12.614Z,20.36
2023-03-12T09:12:14.692Z,19.66
2023-03-12T09:15:02.972Z,21.10
2023-03-12T09:17:34.768Z,19.16
2023-03-12T09:20:02.430Z,17.97
2023-03-12T10:06:15.531Z,18.95
2023-03-12T10:09:35.372Z,19.23
2023-03-12T10:12:26.106Z,18.74
2023-03-12T10:15:31.234Z,19.16
2023-03-12T10:18:10.367Z,20.78
2023-03-12T10:20:47.343Z,18.36
2023-03-12T10:23:42.493Z,19.25
2023-03-12T10:26:19.127Z,20.41
2023-03-12T10:28:53.880Z,19.25
2023-03-12T10:31:29.615Z,18.36
2023-03-12T10:34:00.960Z,18.73
2023-03-12T10:36:38.317Z,20.14
2023-03-12T10:39:15.631Z,19.70
2023-03-12T10:41:45.654Z,20.03
2023-03-12T10:44:25.112Z,19.50
2023-03-12T10:51:29.451Z,18.02
2023-03-12T10:53:56.972Z,18.19
2023-03-12T10:56:24.672Z,17.39
2023-03-12T11:08:03.283Z,19.45
2023-03-12T11:10:45.421Z,19.19
2023-03-12T11:13:42.157Z,18.89
2023-03-12T11:16:15.429Z,19.07
2023-03-12T11:19:13.306Z,18.55
2023-03-12T11:21:54.462Z,18.25
2023-03-12T11:24:21.956Z,18.83
2023-03-12T11:26:59.381Z,19.02
2023-03-12T11:29:33.158Z,18.97
2023-03-12T11:41:27.619Z,18.54
2023-03-12T11:44:19.348Z,18.03
2023-03-12T11:46:55.258Z,18.46
2023-03-12T12:08:11.738Z,18.91
2023-03-12T12:20:20.247Z,17.42
2023-03-12T12:23:12.567Z,17.68
2023-03-12T12:30:16.085Z,18.73
2023-03-12T12:33:54.793Z,18.85
2023-03-12T12:42:04.461Z,17.64
2023-03-12T13:26:34.976Z,18.07
2023-03-12T15:38:33.544Z,17.90
2023-03-12T15:41:40.704Z,17.73
2023-03-12T15:44:32.486Z,17.54
2023-03-12T15:47:41.495Z,17.67
2023-03-12T15:51:26.881Z,17.73
2023-03-12T15:54:08.593Z,17.39
2023-03-12T15:57:31.987Z,16.97
2023-03-12T16:00:19.873Z,17.38
2023-03-12T16:02:50.734Z,17.48
2023-03-12T16:05:20.348Z,17.27
2023-03-12T16:07:49.590Z,17.47
2023-03-12T16:10:20.285Z,17.12
2023-03-12T16:13:00.946Z,16.77
2023-03-12T16:15:38.036Z,16.83
2023-03-12T16:18:24.438Z,16.72
2023-03-12T16:21:10.781Z,17.02
2023-03-12T16:23:47.402Z,17.17
2023-03-12T16:26:51.273Z,16.66
2023-03-12T16:29:35.165Z,16.84
2023-03-12T16:32:13.867Z,16.94
2023-03-12T16:34:48.442Z,16.80
2023-03-12T16:37:29.159Z,16.63
2023-03-12T16:39:57.018Z,16.66
2023-03-12T16:42:24.750Z,16.62
2023-03-12T16:44:52.663Z,16.73
2023-03-12T16:47:25.194Z,16.50
2023-03-12T16:49:57.824Z,16.47
2023-03-12T16:52:36.094Z,16.70
2023-03-12T16:55:04.525Z,16.39
2023-03-12T16:57:38.764Z,16.21
2023-03-12T17:00:13.737Z,16.08
2023-03-12T17:02:48.307Z,15.61
2023-03-12T17:05:31.849Z,16.02
2023-03-12T17:08:02.860Z,15.71
2023-03-12T17:10:36.555Z,15.35
2023-03-12T17:13:06.797Z,15.41
2023-03-12T17:15:37.517Z,15.52
2023-03-12T17:18:09.468Z,15.42
2023-03-12T17:20:40.066Z,15.15
2023-03-12T17:23:10.405Z,15.08
2023-03-12T17:25:44.289Z,15.36
2023-03-12T17:28:22.674Z,14.99
2023-03-12T17:30:56.854Z,15.20
2023-03-12T17:33:28.753Z,15.01
2023-03-12T17:36:06.868Z,14.71
2023-03-12T17:38:42.246Z,14.91
2023-03-12T17:41:25.161Z,14.57
2023-03-12T17:43:55.330Z,14.69
2023-03-12T17:46:24.934Z,14.56
2023-03-12T17:48:55.080Z,14.55
2023-03-12T17:51:49.050Z,14.61
2023-03-12T17:54:26.039Z,14.46
2023-03-12T17:56:57.401Z,14.21
2023-03-12T17:59:26.005Z,14.49
2023-03-12T18:01:56.683Z,14.53
2023-03-12T18:07:43.959Z,14.08
2023-03-12T18:10:12.191Z,14.30
2023-03-12T18:12:40.440Z,14.32
2023-03-12T18:15:11.070Z,14.14
2023-03-12T18:17:46.792Z,14.16
2023-03-12T18:20:28.711Z,14.08
2023-03-12T18:23:12.383Z,13.98
2023-03-12T18:25:40.925Z,13.85
2023-03-12T18:28:15.405Z,13.84
2023-03-12T18:30:53.926Z,13.83
2023-03-12T18:33:27.774Z,13.80
2023-03-12T18:36:01.766Z,13.72
2023-03-12T18:38:33.676Z,13.67
2023-03-12T18:41:08.910Z,13.51
2023-03-12T18:43:40.070Z,13.52
2023-03-12T18:46:17.851Z,13.54
2023-03-12T18:49:00.716Z,13.43
2023-03-12T18:51:32.032Z,13.31
2023-03-12T18:54:06.911Z,13.02
2023-03-12T18:56:38.778Z,13.03
2023-03-12T18:59:59.762Z,13.18
2023-03-12T19:02:30.320Z,13.02
2023-03-12T19:05:03.297Z,13.07
2023-03-12T19:07:39.563Z,13.07
2023-03-12T19:10:23.574Z,13.08
2023-03-12T19:12:56.385Z,13.00
2023-03-12T19:15:27.235Z,12.90
2023-03-12T19:20:41.456Z,12.65
2023-03-12T19:23:09.222Z,12.83
2023-03-12T19:25:37.635Z,12.79
2023-03-12T19:28:06.486Z,12.56
2023-03-12T19:30:34.136Z,12.81
2023-03-12T19:33:01.976Z,12.76
2023-03-12T19:35:29.928Z,12.94
2023-03-12T19:37:59.682Z,12.67
2023-03-12T19:40:30.784Z,12.69
2023-03-12T19:42:58.641Z,12.59
2023-03-12T19:45:26.670Z,12.76
2023-03-12T19:47:54.618Z,12.69
2023-03-12T19:50:31.862Z,12.76
2023-03-12T19:53:02.094Z,12.63
2023-03-12T19:58:49.132Z,12.35
2023-03-12T20:01:16.935Z,12.14
2023-03-12T20:03:45.350Z,12.09
2023-03-12T20:06:13.558Z,12.02
2023-03-12T20:08:41.449Z,12.11
2023-03-12T20:11:10.518Z,12.13
2023-03-12T20:13:38.990Z,11.96
2023-03-12T20:16:07.814Z,11.96
2023-03-12T20:18:35.980Z,12.05
2023-03-12T20:21:05.843Z,11.78
2023-03-12T20:23:35.953Z,11.79
2023-03-12T20:26:04.005Z,11.75
2023-03-12T20:28:32.884Z,11.48
2023-03-12T20:31:14.552Z,11.76
2023-03-12T20:33:42.892Z,11.81
2023-03-12T20:36:17.184Z,11.93
2023-03-12T20:38:50.982Z,11.80
2023-03-12T20:41:21.534Z,11.78
2023-03-12T20:44:06.659Z,11.91
2023-03-12T20:46:54.771Z,11.90
2023-03-12T21:08:20.352Z,11.75
2023-03-12T21:10:48.904Z,11.49
2023-03-12T21:13:18.928Z,11.59
2023-03-12T21:16:20.869Z,11.56
2023-03-12T21:18:40.399Z,11.53
2023-03-12T21:38:51.045Z,11.03
2023-03-12T21:41:32.788Z,10.87
2023-03-12T21:48:19.848Z,10.69
2023-03-12T21:50:47.322Z,10.49
2023-03-12T21:53:23.475Z,10.41
2023-03-12T21:55:59.885Z,10.34
2023-03-12T21:58:28.718Z,10.36
2023-03-12T22:01:08.758Z,10.47
2023-03-12T22:03:36.636Z,10.43
2023-03-12T22:06:05.302Z,10.47
2023-03-12T22:08:33.800Z,10.56
2023-03-12T22:11:01.695Z,10.42
2023-03-12T22:13:29.391Z,10.39
2023-03-12T22:16:01.679Z,10.36
2023-03-12T22:18:29.929Z,10.18
2023-03-12T22:21:04.228Z,10.04
2023-03-12T22:23:32.057Z,10.20
2023-03-12T22:26:04.804Z,10.15
2023-03-12T22:28:33.109Z,10.06
2023-03-12T22:31:02.657Z,9.94
2023-03-12T22:33:30.894Z,9.89
2023-03-12T22:35:58.792Z,9.81
2023-03-12T22:38:28.669Z,9.71
2023-03-12T22:40:56.435Z,9.87
2023-03-12T22:43:26.944Z,9.96
2023-03-12T22:45:57.769Z,10.05
2023-03-12T22:48:25.412Z,10.14
2023-03-12T22:50:54.314Z,10.03
2023-03-12T22:53:22.085Z,9.99
2023-03-12T22:56:05.022Z,9.89
2023-03-12T22:58:32.876Z,9.79
2023-03-12T23:01:06.825Z,9.83
2023-03-12T23:03:36.225Z,9.91
2023-03-12T23:06:07.878Z,9.96
2023-03-12T23:08:35.597Z,10.03
2023-03-12T23:11:06.195Z,9.99
2023-03-12T23:13:36.348Z,9.85
2023-03-12T23:16:06.092Z,9.83
2023-03-12T23:18:34.828Z,9.89
2023-03-12T23:21:05.444Z,9.89
2023-03-12T23:23:33.816Z,9.94
2023-03-12T23:26:03.160Z,9.87
2023-03-12T23:28:31.609Z,9.90
2023-03-12T23:31:02.454Z,9.81
2023-03-12T23:33:31.115Z,9.82
2023-03-12T23:36:08.925Z,9.87
2023-03-12T23:38:37.688Z,9.78
2023-03-12T23:41:15.725Z,9.81
2023-03-12T23:43:44.251Z,9.77
2023-03-12T23:46:13.257Z,9.85
2023-03-12T23:48:40.976Z,9.93
2023-03-12T23:51:20.495Z,9.81
2023-03-12T23:53:50.996Z,9.65
2023-03-12T23:56:21.798Z,9.67
2023-03-12T23:58:51.172Z,9.31
